createdAt,value
2023-02-19T00:01:08.930Z,97402.38
2023-02-19T00:03:37.178Z,97402.91
2023-02-19T00:06:05.250Z,97401.31
2023-02-19T00:08:32.950Z,97397.00
2023-02-19T00:11:04.255Z,97393.56
2023-02-19T00:13:31.380Z,97392.53
2023-02-19T00:15:58.420Z,97396.56
2023-02-19T00:18:25.406Z,97385.78
2023-02-19T00:20:52.420Z,97388.13
2023-02-19T00:23:19.360Z,97380.09
2023-02-19T00:25:46.368Z,97382.06
2023-02-19T00:28:13.317Z,97387.41
2023-02-19T00:30:40.553Z,97382.59
2023-02-19T00:33:08.668Z,97376.69
2023-02-19T00:35:35.756Z,97376.09
2023-02-19T00:38:02.878Z,97375.13
2023-02-19T00:40:29.865Z,97371.88
2023-02-19T00:42:57.206Z,97364.94
2023-02-19T00:45:24.155Z,97368.97
2023-02-19T00:47:51.132Z,97371.06
2023-02-19T00:50:18.155Z,97360.94
2023-02-19T00:52:45.414Z,97361.97
2023-02-19T00:55:12.679Z,97350.78
2023-02-19T00:57:39.626Z,97359.59
2023-02-19T01:00:07.353Z,97358.47
2023-02-19T01:02:34.306Z,97360.91
2023-02-19T01:05:01.304Z,97357.91
2023-02-19T01:07:28.355Z,97345.06
2023-02-19T01:09:55.299Z,97351.69
2023-02-19T01:12:24.345Z,97343.53
2023-02-19T01:14:51.397Z,97332.16
2023-02-19T01:17:18.350Z,97343.44
2023-02-19T01:19:45.485Z,97350.22
2023-02-19T01:22:12.770Z,97343.00
2023-02-19T01:24:39.774Z,97339.53
2023-02-19T01:27:06.729Z,97342.44
2023-02-19T01:29:33.664Z,97337.41
2023-02-19T01:32:00.825Z,97339.78
2023-02-19T01:34:30.211Z,97333.91
2023-02-19T01:36:57.378Z,97335.03
2023-02-19T01:39:24.358Z,97327.00
2023-02-19T01:41:51.273Z,97323.25
2023-02-19T01:44:18.644Z,97329.66
2023-02-19T01:46:46.464Z,97320.56
2023-02-19T01:49:15.735Z,97318.13
2023-02-19T01:52:04.251Z,97314.97
2023-02-19T01:54:36.264Z,97325.66
2023-02-19T01:57:04.702Z,97318.00
2023-02-19T01:59:31.960Z,97319.28
2023-02-19T02:01:59.196Z,97306.94
2023-02-19T02:04:26.235Z,97309.78
2023-02-19T02:06:57.085Z,97309.78
2023-02-19T02:09:45.111Z,97299.50
2023-02-19T02:12:12.932Z,97303.59
2023-02-19T02:14:44.549Z,97297.97
2023-02-19T02:17:24.986Z,97293.31
2023-02-19T02:20:10.772Z,97292.78
2023-02-19T02:22:58.740Z,97292.25
2023-02-19T02:25:44.584Z,97287.97
2023-02-19T02:28:23.478Z,97282.09
2023-02-19T02:31:14.383Z,97283.38
2023-02-19T02:33:54.669Z,97273.44
2023-02-19T02:36:28.721Z,97266.13
2023-02-19T02:38:55.896Z,97271.25
2023-02-19T02:41:23.586Z,97269.66
2023-02-19T02:43:50.514Z,97262.28
2023-02-19T02:46:24.674Z,97258.28
2023-02-19T02:49:00.033Z,97226.72
2023-02-19T02:51:32.570Z,97232.34
2023-02-19T02:54:31.218Z,97232.94
2023-02-19T02:57:00.366Z,97223.84
2023-02-19T02:59:32.746Z,97213.09
2023-02-19T03:02:11.992Z,97217.06
2023-02-19T03:05:19.152Z,97216.00
2023-02-19T03:07:53.643Z,97212.47
2023-02-19T03:10:24.900Z,97208.03
2023-02-19T03:13:10.364Z,97202.44
2023-02-19T03:16:00.383Z,97202.50
2023-02-19T03:18:45.907Z,97192.53
2023-02-19T03:21:13.146Z,97211.38
2023-02-19T03:23:59.153Z,97208.84
2023-02-19T03:26:26.147Z,97195.50
2023-02-19T03:29:11.711Z,97205.63
2023-02-19T03:31:41.880Z,97203.50
2023-02-19T03:34:10.757Z,97207.81
2023-02-19T03:36:51.159Z,97213.59
2023-02-19T03:39:20.399Z,97211.13
2023-02-19T03:42:06.375Z,97201.09
2023-02-19T03:44:57.293Z,97206.09
2023-02-19T03:47:27.042Z,97203.22
2023-02-19T03:50:03.507Z,97212.47
2023-02-19T03:52:58.514Z,97214.75
2023-02-19T03:55:43.686Z,97199.00
2023-02-19T03:58:29.576Z,97201.13
2023-02-19T04:01:13.681Z,97206.19
2023-02-19T04:03:43.976Z,97190.09
2023-02-19T04:06:16.409Z,97195.50
2023-02-19T04:08:46.352Z,97195.00
2023-02-19T04:11:13.793Z,97186.97
2023-02-19T04:14:03.325Z,97196.03
2023-02-19T04:16:30.607Z,97192.59
2023-02-19T04:19:00.734Z,97203.56
2023-02-19T04:21:27.706Z,97200.34
2023-02-19T04:23:54.656Z,97206.22
2023-02-19T04:26:21.628Z,97190.72
2023-02-19T04:28:48.577Z,97199.19
2023-02-19T04:31:15.613Z,97202.13
2023-02-19T04:33:42.593Z,97205.16
2023-02-19T04:36:10.633Z,97199.97
2023-02-19T04:38:37.820Z,97209.94
2023-02-19T04:41:04.924Z,97211.72
2023-02-19T04:43:31.829Z,97207.28
2023-02-19T04:46:02.228Z,97216.38
2023-02-19T04:48:29.274Z,97208.88
2023-02-19T04:50:56.350Z,97218.72
2023-02-19T04:53:23.302Z,97211.91
2023-02-19T04:55:53.368Z,97213.06
2023-02-19T04:58:20.952Z,97212.88
2023-02-19T05:00:51.832Z,97206.41
2023-02-19T05:03:18.814Z,97221.72
2023-02-19T05:05:45.766Z,97219.91
2023-02-19T05:08:12.766Z,97210.66
2023-02-19T05:10:39.783Z,97222.03
2023-02-19T05:13:06.670Z,97222.19
2023-02-19T05:15:33.655Z,97228.22
2023-02-19T05:18:00.768Z,97224.34
2023-02-19T05:20:27.768Z,97228.97
2023-02-19T05:22:54.750Z,97229.53
2023-02-19T05:25:21.653Z,97224.69
2023-02-19T05:27:48.587Z,97224.09
2023-02-19T05:30:15.662Z,97232.00
2023-02-19T05:32:42.561Z,97227.78
2023-02-19T05:35:09.533Z,97228.22
2023-02-19T05:37:36.442Z,97225.69
2023-02-19T05:40:03.633Z,97231.78
2023-02-19T05:42:30.574Z,97228.19
2023-02-19T05:44:57.531Z,97235.88
2023-02-19T05:47:24.574Z,97236.81
2023-02-19T05:49:51.473Z,97234.16
2023-02-19T05:52:18.401Z,97237.97
2023-02-19T05:54:45.462Z,97231.78
2023-02-19T05:57:12.393Z,97244.25
2023-02-19T05:59:39.536Z,97235.50
2023-02-19T06:02:06.617Z,97246.13
2023-02-19T06:04:33.568Z,97237.69
2023-02-19T06:07:00.511Z,97242.03
2023-02-19T06:09:27.498Z,97248.72
2023-02-19T06:11:54.462Z,97267.34
2023-02-19T06:14:21.430Z,97268.50
2023-02-19T06:16:48.471Z,97275.09
2023-02-19T06:19:15.504Z,97279.69
2023-02-19T06:21:42.509Z,97281.03
2023-02-19T06:24:09.938Z,97276.72
2023-02-19T06:26:37.014Z,97289.19
2023-02-19T06:29:04.326Z,97287.94
2023-02-19T06:31:31.627Z,97292.00
2023-02-19T06:33:58.649Z,97292.88
2023-02-19T06:36:25.788Z,97297.25
2023-02-19T06:38:52.841Z,97305.28
2023-02-19T06:41:20.349Z,97301.22
2023-02-19T06:43:47.383Z,97311.16
2023-02-19T06:46:15.256Z,97307.75
2023-02-19T06:48:44.351Z,97319.31
2023-02-19T06:51:13.670Z,97314.75
2023-02-19T06:53:40.558Z,97324.53
2023-02-19T06:56:28.780Z,97333.09
2023-02-19T06:58:56.870Z,97340.59
2023-02-19T07:01:24.675Z,97338.50
2023-02-19T07:03:52.929Z,97345.31
2023-02-19T07:06:23.906Z,97355.69
2023-02-19T07:08:51.126Z,97356.75
2023-02-19T07:11:18.781Z,97362.03
2023-02-19T07:13:45.803Z,97376.16
2023-02-19T07:16:12.965Z,97375.69
2023-02-19T07:18:40.385Z,97373.94
2023-02-19T07:21:12.386Z,97382.53
2023-02-19T07:23:39.981Z,97384.13
2023-02-19T07:26:13.973Z,97388.09
2023-02-19T07:28:41.734Z,97391.28
2023-02-19T07:31:08.871Z,97395.72
2023-02-19T07:33:35.972Z,97408.78
2023-02-19T07:36:03.021Z,97403.13
2023-02-19T07:38:30.003Z,97403.13
2023-02-19T07:40:58.385Z,97404.94
2023-02-19T07:43:25.915Z,97399.00
2023-02-19T07:45:53.461Z,97401.19
2023-02-19T07:48:20.511Z,97401.91
2023-02-19T07:50:59.633Z,97400.84
2023-02-19T07:53:26.867Z,97400.81
2023-02-19T07:55:53.964Z,97411.31
2023-02-19T07:58:21.007Z,97421.47
2023-02-19T08:00:47.956Z,97417.22
2023-02-19T08:03:15.078Z,97414.78
2023-02-19T08:05:42.746Z,97417.88
2023-02-19T08:08:12.153Z,97423.91
2023-02-19T08:10:57.575Z,97425.63
2023-02-19T08:13:25.523Z,97418.75
2023-02-19T08:15:55.106Z,97429.78
2023-02-19T08:18:24.944Z,97427.72
2023-02-19T08:20:51.969Z,97425.19
2023-02-19T08:23:20.836Z,97435.28
2023-02-19T08:25:48.706Z,97423.00
2023-02-19T08:28:15.738Z,97421.84
2023-02-19T08:30:45.407Z,97431.06
2023-02-19T08:33:14.639Z,97445.53
2023-02-19T08:35:42.930Z,97431.81
2023-02-19T08:38:10.619Z,97434.72
2023-02-19T08:40:38.761Z,97425.75
2023-02-19T08:43:10.564Z,97438.50
2023-02-19T08:45:38.065Z,97437.75
2023-02-19T08:48:05.361Z,97442.28
2023-02-19T08:50:32.658Z,97430.28
2023-02-19T08:53:00.593Z,97439.25
2023-02-19T08:55:27.597Z,97446.22
2023-02-19T08:57:54.898Z,97452.56
2023-02-19T09:00:22.010Z,97449.66
2023-02-19T09:02:49.376Z,97450.97
2023-02-19T09:05:16.681Z,97468.13
2023-02-19T09:07:43.933Z,97462.84
2023-02-19T09:10:11.459Z,97464.16
2023-02-19T09:12:38.634Z,97463.66
2023-02-19T09:15:06.199Z,97457.91
2023-02-19T09:17:33.345Z,97466.34
2023-02-19T09:20:00.393Z,97469.16
2023-02-19T09:22:27.478Z,97473.34
2023-02-19T09:24:54.683Z,97460.59
2023-02-19T09:27:21.776Z,97459.75
2023-02-19T09:29:48.783Z,97470.31
2023-02-19T09:32:17.498Z,97481.78
2023-02-19T09:34:45.824Z,97481.75
2023-02-19T09:37:12.814Z,97481.19
2023-02-19T09:39:39.800Z,97484.84
2023-02-19T09:42:15.885Z,97498.06
2023-02-19T09:44:44.760Z,97505.72
2023-02-19T09:47:17.781Z,97497.41
2023-02-19T09:49:50.107Z,97504.69
2023-02-19T09:52:25.859Z,97501.53
2023-02-19T09:54:57.693Z,97508.41
2023-02-19T09:57:25.876Z,97500.00
2023-02-19T09:59:57.165Z,97505.31
2023-02-19T10:02:24.864Z,97509.50
2023-02-19T10:04:52.298Z,97527.63
2023-02-19T10:07:49.030Z,97523.38
2023-02-19T10:10:15.870Z,97533.53
2023-02-19T10:12:54.326Z,97537.81
2023-02-19T10:15:30.517Z,97533.94
2023-02-19T10:17:57.859Z,97543.16
2023-02-19T10:20:26.770Z,97542.63
2023-02-19T10:23:02.726Z,97533.19
2023-02-19T10:25:29.975Z,97551.88
2023-02-19T10:27:59.470Z,97551.25
2023-02-19T10:30:31.200Z,97543.72
2023-02-19T10:33:13.000Z,97539.78
2023-02-19T10:36:00.167Z,97544.91
2023-02-19T10:38:32.347Z,97544.94
2023-02-19T10:41:08.683Z,97550.59
2023-02-19T10:43:37.316Z,97551.88
2023-02-19T10:46:17.689Z,97544.91
2023-02-19T10:49:01.175Z,97538.25
2023-02-19T10:51:40.926Z,97531.06
2023-02-19T10:54:17.997Z,97532.47
2023-02-19T10:56:45.125Z,97531.50
2023-02-19T10:59:26.495Z,97535.09
2023-02-19T11:02:04.404Z,97531.09
2023-02-19T11:04:35.469Z,97535.25
2023-02-19T11:07:14.206Z,97536.25
2023-02-19T11:09:43.150Z,97551.88
2023-02-19T11:12:10.247Z,97557.22
2023-02-19T11:14:37.352Z,97545.09
2023-02-19T11:17:05.724Z,97558.19
2023-02-19T11:19:36.693Z,97559.47
2023-02-19T11:22:28.326Z,97549.31
2023-02-19T11:24:58.427Z,97560.09
2023-02-19T11:27:26.398Z,97555.69
2023-02-19T11:29:53.441Z,97557.53
2023-02-19T11:32:20.577Z,97548.91
2023-02-19T11:34:48.153Z,97545.41
2023-02-19T11:37:20.936Z,97538.19
2023-02-19T11:39:49.215Z,97528.50
2023-02-19T11:42:19.328Z,97544.16
2023-02-19T11:44:58.489Z,97537.88
2023-02-19T11:47:50.390Z,97544.25
2023-02-19T11:50:26.682Z,97551.06
2023-02-19T11:53:11.578Z,97547.63
2023-02-19T11:55:54.186Z,97548.75
2023-02-19T11:58:45.810Z,97549.78
2023-02-19T12:01:15.696Z,97558.91
2023-02-19T12:04:00.984Z,97560.06
2023-02-19T12:06:55.249Z,97549.22
2023-02-19T12:09:30.781Z,97555.88
2023-02-19T12:12:00.730Z,97561.41
2023-02-19T12:14:51.994Z,97555.72
2023-02-19T12:17:31.623Z,97563.28
2023-02-19T12:20:03.738Z,97550.34
2023-02-19T12:22:32.478Z,97569.53
2023-02-19T12:25:17.871Z,97565.22
2023-02-19T12:27:57.130Z,97563.97
2023-02-19T12:31:08.654Z,97559.16
2023-02-19T12:34:07.650Z,97576.16
2023-02-19T12:36:53.056Z,97564.31
2023-02-19T12:39:29.169Z,97578.00
2023-02-19T12:41:59.014Z,97564.66
2023-02-19T12:44:42.694Z,97581.75
2023-02-19T12:47:16.986Z,97582.06
2023-02-19T12:49:47.265Z,97583.19
2023-02-19T12:52:18.516Z,97583.31
2023-02-19T12:54:46.722Z,97599.78
2023-02-19T12:57:29.993Z,97580.94
2023-02-19T13:00:28.368Z,97574.00
2023-02-19T13:03:20.985Z,97574.72
2023-02-19T13:05:58.937Z,97569.88
2023-02-19T13:08:34.189Z,97576.75
2023-02-19T13:11:05.475Z,97568.00
2023-02-19T13:13:38.595Z,97568.50
2023-02-19T13:16:18.460Z,97574.22
2023-02-19T13:18:56.902Z,97565.63
2023-02-19T13:21:44.461Z,97558.47
2023-02-19T13:24:13.934Z,97565.59
2023-02-19T13:27:10.851Z,97566.88
2023-02-19T13:30:06.033Z,97567.78
2023-02-19T13:33:01.036Z,97577.13
2023-02-19T13:35:52.966Z,97580.13
2023-02-19T13:38:20.113Z,97563.56
2023-02-19T13:40:55.011Z,97564.56
2023-02-19T13:43:27.623Z,97568.84
2023-02-19T13:45:59.392Z,97565.97
2023-02-19T13:48:32.305Z,97567.47
2023-02-19T13:51:23.623Z,97573.53
2023-02-19T13:53:57.502Z,97575.03
2023-02-19T13:56:31.394Z,97594.50
2023-02-19T13:59:17.303Z,97580.50
2023-02-19T14:01:53.376Z,97581.97
2023-02-19T14:04:40.273Z,97578.91
2023-02-19T14:07:07.325Z,97566.59
2023-02-19T14:09:37.385Z,97575.31
2023-02-19T14:12:09.612Z,97579.91
2023-02-19T14:14:37.123Z,97579.00
2023-02-19T14:17:10.077Z,97566.94
2023-02-19T14:19:43.205Z,97557.56
2023-02-19T14:22:47.624Z,97567.31
2023-02-19T14:25:39.777Z,97565.94
2023-02-19T14:28:06.974Z,97566.38
2023-02-19T14:30:34.827Z,97570.94
2023-02-19T14:33:10.755Z,97579.66
2023-02-19T14:35:44.502Z,97577.72
2023-02-19T14:38:22.799Z,97585.09
2023-02-19T14:40:49.804Z,97586.25
2023-02-19T14:43:18.556Z,97593.97
2023-02-19T14:45:48.704Z,97591.84
2023-02-19T14:48:30.956Z,97597.06
2023-02-19T14:51:02.711Z,97603.16
2023-02-19T14:53:29.820Z,97609.81
2023-02-19T14:55:57.147Z,97606.78
2023-02-19T14:58:31.048Z,97617.50
2023-02-19T15:00:58.094Z,97616.66
2023-02-19T15:03:31.985Z,97626.28
2023-02-19T15:06:06.355Z,97622.50
2023-02-19T15:08:37.108Z,97620.59
2023-02-19T15:11:04.944Z,97619.19
2023-02-19T15:13:32.145Z,97620.41
2023-02-19T15:15:59.146Z,97620.22
2023-02-19T15:18:27.027Z,97625.22
2023-02-19T15:21:04.792Z,97618.78
2023-02-19T15:23:32.034Z,97628.03
2023-02-19T15:25:59.130Z,97633.44
2023-02-19T15:28:25.995Z,97636.63
2023-02-19T15:30:59.020Z,97639.25
2023-02-19T15:33:27.530Z,97631.19
2023-02-19T15:35:59.170Z,97628.03
2023-02-19T15:38:26.220Z,97635.75
2023-02-19T15:40:53.420Z,97635.53
2023-02-19T15:43:28.192Z,97637.66
2023-02-19T15:46:03.944Z,97640.38
2023-02-19T15:48:36.124Z,97630.19
2023-02-19T15:51:09.811Z,97627.00
2023-02-19T15:53:41.189Z,97632.53
2023-02-19T15:56:28.338Z,97640.72
2023-02-19T15:59:00.149Z,97634.53
2023-02-19T16:01:32.306Z,97638.09
2023-02-19T16:03:59.345Z,97639.63
2023-02-19T16:06:27.050Z,97641.25
2023-02-19T16:09:02.261Z,97643.94
2023-02-19T16:11:37.510Z,97647.88
2023-02-19T16:14:32.155Z,97649.13
2023-02-19T16:17:05.816Z,97656.00
2023-02-19T16:19:36.873Z,97647.69
2023-02-19T16:22:03.948Z,97647.50
2023-02-19T16:24:36.009Z,97662.31
2023-02-19T16:27:03.353Z,97662.13
2023-02-19T16:29:33.596Z,97663.69
2023-02-19T16:32:02.435Z,97668.69
2023-02-19T16:34:42.232Z,97671.41
2023-02-19T16:37:33.698Z,97685.44
2023-02-19T16:40:11.125Z,97686.22
2023-02-19T16:42:38.563Z,97693.25
2023-02-19T16:45:07.519Z,97692.13
2023-02-19T16:47:36.435Z,97697.38
2023-02-19T16:50:05.010Z,97700.91
2023-02-19T16:52:32.018Z,97693.28
2023-02-19T16:54:59.065Z,97710.06
2023-02-19T16:57:25.979Z,97724.34
2023-02-19T16:59:53.189Z,97714.50
2023-02-19T17:02:21.353Z,97715.63
2023-02-19T17:04:48.695Z,97724.88
2023-02-19T17:07:16.232Z,97722.97
2023-02-19T17:09:43.364Z,97728.50
2023-02-19T17:12:14.214Z,97724.34
2023-02-19T17:14:41.365Z,97728.53
2023-02-19T17:17:08.575Z,97734.31
2023-02-19T17:19:35.720Z,97760.84
2023-02-19T17:22:02.846Z,97748.22
2023-02-19T17:24:29.863Z,97755.81
2023-02-19T17:26:56.857Z,97757.53
2023-02-19T17:29:24.741Z,97746.22
2023-02-19T17:31:52.187Z,97753.66
2023-02-19T17:34:19.358Z,97758.88
2023-02-19T17:36:47.030Z,97765.22
2023-02-19T17:39:15.326Z,97775.84
2023-02-19T17:41:42.461Z,97790.97
2023-02-19T17:44:09.826Z,97792.88
2023-02-19T17:46:37.369Z,97796.25
2023-02-19T17:49:04.470Z,97798.19
2023-02-19T17:51:31.556Z,97794.22
2023-02-19T17:53:58.683Z,97809.38
2023-02-19T17:56:26.221Z,97808.91
2023-02-19T17:58:54.241Z,97808.91
2023-02-19T18:01:21.703Z,97813.81
2023-02-19T18:03:48.773Z,97818.22
2023-02-19T18:06:15.791Z,97826.88
2023-02-19T18:08:52.700Z,97825.50
2023-02-19T18:11:20.378Z,97829.22
2023-02-19T18:13:48.178Z,97835.38
2023-02-19T18:16:18.324Z,97838.97
2023-02-19T18:18:45.493Z,97836.69
2023-02-19T18:21:13.232Z,97840.91
2023-02-19T18:23:40.354Z,97843.75
2023-02-19T18:26:10.933Z,97842.53
2023-02-19T18:28:38.014Z,97853.56
2023-02-19T18:31:05.304Z,97852.44
2023-02-19T18:33:33.271Z,97860.88
2023-02-19T18:36:00.488Z,97857.25
2023-02-19T18:38:27.834Z,97859.66
2023-02-19T18:40:54.791Z,97862.78
2023-02-19T18:43:21.920Z,97866.63
2023-02-19T18:45:48.950Z,97865.03
2023-02-19T18:48:16.027Z,97869.22
2023-02-19T18:50:44.812Z,97870.03
2023-02-19T18:53:11.905Z,97876.59
2023-02-19T18:55:38.871Z,97868.41
2023-02-19T18:58:05.898Z,97866.38
2023-02-19T19:00:32.941Z,97866.56
2023-02-19T19:03:00.048Z,97881.28
2023-02-19T19:05:27.235Z,97881.63
2023-02-19T19:07:55.491Z,97877.06
2023-02-19T19:10:22.590Z,97879.59
2023-02-19T19:12:49.702Z,97865.25
2023-02-19T19:15:18.267Z,97880.22
2023-02-19T19:17:46.217Z,97882.56
2023-02-19T19:20:13.561Z,97886.19
2023-02-19T19:22:40.674Z,97882.06
2023-02-19T19:25:08.858Z,97886.50
2023-02-19T19:27:36.030Z,97874.69
2023-02-19T19:30:06.087Z,97873.19
2023-02-19T19:32:33.106Z,97870.22
2023-02-19T19:35:00.169Z,97862.91
2023-02-19T19:37:29.281Z,97867.22
2023-02-19T19:39:56.732Z,97865.31
2023-02-19T19:42:23.987Z,97864.09
2023-02-19T19:44:51.021Z,97870.38
2023-02-19T19:47:18.313Z,97864.41
2023-02-19T19:49:47.247Z,97871.41
2023-02-19T19:52:14.850Z,97879.06
2023-02-19T19:54:43.347Z,97883.13
2023-02-19T19:57:10.572Z,97878.50
2023-02-19T19:59:39.651Z,97876.19
2023-02-19T20:02:07.452Z,97893.75
2023-02-19T20:04:34.654Z,97888.53
2023-02-19T20:07:01.915Z,97887.56
2023-02-19T20:09:29.303Z,97890.34
2023-02-19T20:11:56.643Z,97882.84
2023-02-19T20:14:24.207Z,97890.16
2023-02-19T20:16:51.257Z,97886.31
2023-02-19T20:19:18.766Z,97884.34
2023-02-19T20:21:46.623Z,97884.88
2023-02-19T20:24:15.753Z,97886.72
2023-02-19T20:26:42.751Z,97888.44
2023-02-19T20:29:10.587Z,97887.31
2023-02-19T20:31:38.452Z,97889.13
2023-02-19T20:34:05.737Z,97879.66
2023-02-19T20:36:32.962Z,97884.56
2023-02-19T20:39:00.032Z,97879.72
2023-02-19T20:41:27.126Z,97882.97
2023-02-19T20:43:54.095Z,97887.50
2023-02-19T20:46:21.340Z,97889.28
2023-02-19T20:48:50.424Z,97892.56
2023-02-19T20:51:18.720Z,97883.44
2023-02-19T20:53:45.706Z,97893.13
2023-02-19T20:56:13.107Z,97893.22
2023-02-19T20:58:43.438Z,97894.09
2023-02-19T21:01:11.798Z,97893.25
2023-02-19T21:03:38.791Z,97898.63
2023-02-19T21:06:05.976Z,97891.19
2023-02-19T21:08:33.047Z,97893.94
2023-02-19T21:11:00.031Z,97899.75
2023-02-19T21:13:28.421Z,97906.50
2023-02-19T21:15:57.004Z,97903.31
2023-02-19T21:18:24.079Z,97901.88
2023-02-19T21:20:51.137Z,97903.13
2023-02-19T21:23:18.404Z,97898.28
2023-02-19T21:25:45.651Z,97901.00
2023-02-19T21:28:12.725Z,97896.00
2023-02-19T21:30:39.996Z,97901.38
2023-02-19T21:33:07.135Z,97898.78
2023-02-19T21:35:34.112Z,97902.91
2023-02-19T21:38:01.027Z,97900.53
2023-02-19T21:40:30.103Z,97898.69
2023-02-19T21:42:57.191Z,97897.28
2023-02-19T21:45:24.311Z,97889.69
2023-02-19T21:47:55.327Z,97882.38
2023-02-19T21:50:22.729Z,97886.47
2023-02-19T21:52:49.905Z,97890.59
2023-02-19T21:55:16.865Z,97895.53
2023-02-19T21:57:44.067Z,97894.03
2023-02-19T22:00:11.611Z,97901.53
2023-02-19T22:02:38.723Z,97893.50
2023-02-19T22:05:06.236Z,97883.41
2023-02-19T22:07:33.245Z,97891.28
2023-02-19T22:10:00.319Z,97899.59
2023-02-19T22:12:27.262Z,97895.75
2023-02-19T22:14:54.278Z,97904.22
2023-02-19T22:17:21.250Z,97909.28
2023-02-19T22:19:48.266Z,97901.81
2023-02-19T22:22:15.297Z,97903.00
2023-02-19T22:24:42.296Z,97908.34
2023-02-19T22:27:09.275Z,97913.47
2023-02-19T22:29:36.342Z,97898.19
2023-02-19T22:32:03.488Z,97905.06
2023-02-19T22:34:30.584Z,97904.09
2023-02-19T22:36:57.617Z,97910.56
2023-02-19T22:39:25.898Z,97907.94
2023-02-19T22:41:53.613Z,97914.72
2023-02-19T22:44:20.636Z,97918.31
2023-02-19T22:46:51.803Z,97923.50
2023-02-19T22:49:19.245Z,97917.66
2023-02-19T22:52:01.574Z,97927.59
2023-02-19T22:54:28.936Z,97925.72
2023-02-19T22:56:56.141Z,97933.59
2023-02-19T22:59:23.307Z,97927.31
2023-02-19T23:01:50.436Z,97936.34
2023-02-19T23:04:17.659Z,97941.81
2023-02-19T23:06:45.863Z,97942.97
2023-02-19T23:09:26.648Z,97942.59
2023-02-19T23:11:53.745Z,97940.75
2023-02-19T23:14:21.305Z,97953.72
2023-02-19T23:16:48.368Z,97942.16
2023-02-19T23:19:15.646Z,97941.34
2023-02-19T23:21:43.810Z,97943.69
2023-02-19T23:24:11.631Z,97940.91
2023-02-19T23:26:45.426Z,97952.84
2023-02-19T23:29:15.059Z,97954.22
2023-02-19T23:31:42.196Z,97956.50
2023-02-19T23:34:09.313Z,97947.91
2023-02-19T23:36:43.272Z,97954.75
2023-02-19T23:39:11.734Z,97953.69
2023-02-19T23:41:38.851Z,97966.13
2023-02-19T23:44:06.002Z,97957.13
2023-02-19T23:46:34.052Z,97955.09
2023-02-19T23:49:01.082Z,97957.41
2023-02-19T23:51:27.981Z,97962.03
2023-02-19T23:53:54.943Z,97953.69
2023-02-19T23:56:25.744Z,97949.59
2023-02-19T23:58:53.466Z,97944.47
